sensor_id;sensor_type;location;lat;lon;timestamp;P1;durP1;ratioP1;P2;durP2;ratioP2
769;SDS011;368;48.698;9.116;2022-09-01T00:00:24;21.33;;;19.27;;
769;SDS011;368;48.698;9.116;2022-09-01T00:02:54;21.33;;;19.33;;
769;SDS011;368;48.698;9.116;2022-09-01T00:05:21;28.80;;;23.50;;
769;SDS011;368;48.698;9.116;2022-09-01T00:07:48;27.13;;;24.07;;
769;SDS011;368;48.698;9.116;2022-09-01T00:10:15;28.23;;;25.30;;
769;SDS011;368;48.698;9.116;2022-09-01T00:12:42;20.53;;;18.40;;
769;SDS011;368;48.698;9.116;2022-09-01T00:15:11;17.53;;;16.03;;
769;SDS011;368;48.698;9.116;2022-09-01T00:17:38;19.87;;;17.83;;
769;SDS011;368;48.698;9.116;2022-09-01T00:20:06;30.20;;;26.93;;
769;SDS011;368;48.698;9.116;2022-09-01T00:22:34;29.57;;;24.87;;
769;SDS011;368;48.698;9.116;2022-09-01T00:25:02;32.20;;;28.70;;
769;SDS011;368;48.698;9.116;2022-09-01T00:27:30;33.83;;;30.50;;
769;SDS011;368;48.698;9.116;2022-09-01T00:29:57;36.90;;;33.10;;
769;SDS011;368;48.698;9.116;2022-09-01T00:32:25;38.27;;;31.40;;
769;SDS011;368;48.698;9.116;2022-09-01T00:34:52;35.90;;;32.10;;
769;SDS011;368;48.698;9.116;2022-09-01T00:37:19;33.90;;;29.40;;
769;SDS011;368;48.698;9.116;2022-09-01T00:39:46;33.47;;;30.00;;
769;SDS011;368;48.698;9.116;2022-09-01T00:42:12;34.47;;;30.87;;
769;SDS011;368;48.698;9.116;2022-09-01T00:44:39;35.83;;;32.00;;
769;SDS011;368;48.698;9.116;2022-09-01T00:47:06;34.43;;;30.83;;
769;SDS011;368;48.698;9.116;2022-09-01T00:49:35;33.53;;;30.20;;
769;SDS011;368;48.698;9.116;2022-09-01T00:52:06;34.13;;;30.73;;
769;SDS011;368;48.698;9.116;2022-09-01T00:54:36;32.90;;;29.60;;
769;SDS011;368;48.698;9.116;2022-09-01T00:57:07;33.63;;;30.20;;
769;SDS011;368;48.698;9.116;2022-09-01T00:59:36;33.77;;;29.57;;
769;SDS011;368;48.698;9.116;2022-09-01T01:02:08;31.80;;;28.07;;
769;SDS011;368;48.698;9.116;2022-09-01T01:04:36;30.23;;;26.97;;
769;SDS011;368;48.698;9.116;2022-09-01T01:07:05;30.20;;;27.20;;
769;SDS011;368;48.698;9.116;2022-09-01T01:09:34;35.30;;;27.57;;
769;SDS011;368;48.698;9.116;2022-09-01T01:12:04;31.47;;;28.27;;
769;SDS011;368;48.698;9.116;2022-09-01T01:14:33;29.30;;;26.50;;
769;SDS011;368;48.698;9.116;2022-09-01T01:17:02;30.47;;;27.37;;
769;SDS011;368;48.698;9.116;2022-09-01T01:19:33;32.03;;;26.70;;
769;SDS011;368;48.698;9.116;2022-09-01T01:22:26;38.27;;;28.33;;
769;SDS011;368;48.698;9.116;2022-09-01T01:25:15;31.63;;;28.53;;
769;SDS011;368;48.698;9.116;2022-09-01T01:27:43;34.17;;;28.17;;
769;SDS011;368;48.698;9.116;2022-09-01T01:30:10;32.20;;;28.00;;
769;SDS011;368;48.698;9.116;2022-09-01T01:32:38;30.93;;;28.03;;
769;SDS011;368;48.698;9.116;2022-09-01T01:35:07;29.33;;;26.30;;
769;SDS011;368;48.698;9.116;2022-09-01T01:37:39;29.60;;;26.50;;
769;SDS011;368;48.698;9.116;2022-09-01T01:40:10;30.67;;;27.50;;
769;SDS011;368;48.698;9.116;2022-09-01T01:42:42;29.40;;;26.50;;
769;SDS011;368;48.698;9.116;2022-09-01T01:45:10;31.47;;;28.07;;
769;SDS011;368;48.698;9.116;2022-09-01T01:47:41;32.60;;;29.27;;
769;SDS011;368;48.698;9.116;2022-09-01T01:50:09;32.90;;;29.50;;
769;SDS011;368;48.698;9.116;2022-09-01T01:52:36;31.53;;;28.30;;
769;SDS011;368;48.698;9.116;2022-09-01T01:55:03;31.87;;;28.50;;
769;SDS011;368;48.698;9.116;2022-09-01T01:57:37;32.93;;;29.70;;
769;SDS011;368;48.698;9.116;2022-09-01T02:00:14;32.13;;;28.97;;
769;SDS011;368;48.698;9.116;2022-09-01T02:02:44;32.90;;;28.73;;
769;SDS011;368;48.698;9.116;2022-09-01T02:05:16;34.90;;;29.63;;
769;SDS011;368;48.698;9.116;2022-09-01T02:07:49;31.03;;;27.77;;
769;SDS011;368;48.698;9.116;2022-09-01T02:10:20;31.50;;;28.33;;
769;SDS011;368;48.698;9.116;2022-09-01T02:12:48;36.67;;;29.93;;
769;SDS011;368;48.698;9.116;2022-09-01T02:15:17;33.33;;;29.13;;
769;SDS011;368;48.698;9.116;2022-09-01T02:17:44;33.33;;;29.93;;
769;SDS011;368;48.698;9.116;2022-09-01T02:20:12;33.77;;;30.17;;
769;SDS011;368;48.698;9.116;2022-09-01T02:22:41;36.50;;;32.57;;
769;SDS011;368;48.698;9.116;2022-09-01T02:25:08;33.40;;;29.90;;
769;SDS011;368;48.698;9.116;2022-09-01T02:27:36;33.40;;;29.90;;
769;SDS011;368;48.698;9.116;2022-09-01T02:30:04;32.57;;;29.23;;
769;SDS011;368;48.698;9.116;2022-09-01T02:32:36;32.00;;;28.80;;
769;SDS011;368;48.698;9.116;2022-09-01T02:35:06;31.53;;;28.50;;
769;SDS011;368;48.698;9.116;2022-09-01T02:37:34;30.60;;;27.60;;
769;SDS011;368;48.698;9.116;2022-09-01T02:40:04;30.43;;;27.50;;
769;SDS011;368;48.698;9.116;2022-09-01T02:42:34;33.70;;;30.07;;
769;SDS011;368;48.698;9.116;2022-09-01T02:45:05;30.47;;;27.40;;
769;SDS011;368;48.698;9.116;2022-09-01T02:47:43;31.70;;;28.30;;
769;SDS011;368;48.698;9.116;2022-09-01T02:50:11;32.27;;;28.90;;
769;SDS011;368;48.698;9.116;2022-09-01T02:52:43;33.77;;;29.47;;
769;SDS011;368;48.698;9.116;2022-09-01T02:55:13;32.87;;;29.53;;
769;SDS011;368;48.698;9.116;2022-09-01T02:57:47;33.37;;;29.83;;
769;SDS011;368;48.698;9.116;2022-09-01T03:00:15;35.87;;;30.00;;
769;SDS011;368;48.698;9.116;2022-09-01T03:02:54;35.70;;;32.00;;
769;SDS011;368;48.698;9.116;2022-09-01T03:05:23;36.47;;;32.97;;
769;SDS011;368;48.698;9.116;2022-09-01T03:07:54;39.40;;;34.20;;
769;SDS011;368;48.698;9.116;2022-09-01T03:10:25;41.10;;;35.17;;
769;SDS011;368;48.698;9.116;2022-09-01T03:12:57;45.60;;;37.67;;
769;SDS011;368;48.698;9.116;2022-09-01T03:15:25;37.43;;;33.33;;
769;SDS011;368;48.698;9.116;2022-09-01T03:17:55;38.10;;;34.13;;
769;SDS011;368;48.698;9.116;2022-09-01T03:20:24;39.00;;;33.80;;
769;SDS011;368;48.698;9.116;2022-09-01T03:22:52;38.47;;;30.50;;
769;SDS011;368;48.698;9.116;2022-09-01T03:25:20;33.43;;;30.10;;
769;SDS011;368;48.698;9.116;2022-09-01T03:27:49;34.33;;;30.67;;
769;SDS011;368;48.698;9.116;2022-09-01T03:30:17;32.33;;;29.03;;
769;SDS011;368;48.698;9.116;2022-09-01T03:32:45;33.80;;;30.30;;
769;SDS011;368;48.698;9.116;2022-09-01T03:35:14;21.13;;;18.90;;
769;SDS011;368;48.698;9.116;2022-09-01T03:37:41;21.13;;;19.03;;
769;SDS011;368;48.698;9.116;2022-09-01T03:40:10;28.37;;;25.60;;
769;SDS011;368;48.698;9.116;2022-09-01T03:42:38;32.07;;;28.67;;
769;SDS011;368;48.698;9.116;2022-09-01T03:45:06;32.00;;;28.77;;
769;SDS011;368;48.698;9.116;2022-09-01T03:47:36;31.03;;;28.00;;
769;SDS011;368;48.698;9.116;2022-09-01T03:50:04;31.60;;;28.43;;
769;SDS011;368;48.698;9.116;2022-09-01T03:52:36;34.73;;;30.97;;
769;SDS011;368;48.698;9.116;2022-09-01T03:55:05;34.20;;;30.30;;
769;SDS011;368;48.698;9.116;2022-09-01T03:57:33;34.13;;;30.53;;
769;SDS011;368;48.698;9.116;2022-09-01T04:00:02;34.00;;;30.60;;
769;SDS011;368;48.698;9.116;2022-09-01T04:02:32;34.77;;;30.97;;
769;SDS011;368;48.698;9.116;2022-09-01T04:04:59;32.07;;;28.87;;
769;SDS011;368;48.698;9.116;2022-09-01T04:07:26;32.70;;;29.43;;
769;SDS011;368;48.698;9.116;2022-09-01T04:09:55;32.40;;;28.60;;
769;SDS011;368;48.698;9.116;2022-09-01T04:12:22;31.80;;;28.50;;
769;SDS011;368;48.698;9.116;2022-09-01T04:14:49;36.00;;;29.20;;
769;SDS011;368;48.698;9.116;2022-09-01T04:17:16;32.03;;;28.60;;
769;SDS011;368;48.698;9.116;2022-09-01T04:20:01;32.70;;;29.27;;
769;SDS011;368;48.698;9.116;2022-09-01T04:22:32;32.30;;;29.00;;
769;SDS011;368;48.698;9.116;2022-09-01T04:25:01;33.87;;;27.80;;
769;SDS011;368;48.698;9.116;2022-09-01T04:27:28;21.67;;;19.63;;
769;SDS011;368;48.698;9.116;2022-09-01T04:29:54;23.63;;;21.40;;
769;SDS011;368;48.698;9.116;2022-09-01T04:32:21;20.37;;;18.47;;
769;SDS011;368;48.698;9.116;2022-09-01T04:34:49;20.73;;;18.70;;
769;SDS011;368;48.698;9.116;2022-09-01T04:37:17;20.40;;;18.40;;
769;SDS011;368;48.698;9.116;2022-09-01T04:39:47;23.53;;;21.23;;
769;SDS011;368;48.698;9.116;2022-09-01T04:42:17;25.60;;;22.90;;
769;SDS011;368;48.698;9.116;2022-09-01T04:44:45;40.37;;;33.70;;
769;SDS011;368;48.698;9.116;2022-09-01T04:47:12;39.77;;;35.13;;
769;SDS011;368;48.698;9.116;2022-09-01T04:49:43;40.70;;;35.67;;
769;SDS011;368;48.698;9.116;2022-09-01T04:52:11;42.50;;;36.87;;
769;SDS011;368;48.698;9.116;2022-09-01T04:54:38;46.27;;;37.70;;
769;SDS011;368;48.698;9.116;2022-09-01T04:57:05;47.33;;;39.83;;
769;SDS011;368;48.698;9.116;2022-09-01T04:59:33;49.67;;;38.70;;
769;SDS011;368;48.698;9.116;2022-09-01T05:02:00;45.77;;;38.63;;
769;SDS011;368;48.698;9.116;2022-09-01T05:04:32;51.83;;;42.30;;
769;SDS011;368;48.698;9.116;2022-09-01T05:06:59;59.67;;;42.37;;
769;SDS011;368;48.698;9.116;2022-09-01T05:09:27;51.40;;;41.60;;
769;SDS011;368;48.698;9.116;2022-09-01T05:11:56;47.97;;;38.50;;
769;SDS011;368;48.698;9.116;2022-09-01T05:14:25;45.47;;;39.73;;
769;SDS011;368;48.698;9.116;2022-09-01T05:16:56;43.60;;;36.87;;
769;SDS011;368;48.698;9.116;2022-09-01T05:19:24;44.33;;;38.37;;
769;SDS011;368;48.698;9.116;2022-09-01T05:21:53;40.50;;;36.10;;
769;SDS011;368;48.698;9.116;2022-09-01T05:24:22;43.43;;;38.37;;
769;SDS011;368;48.698;9.116;2022-09-01T05:26:56;38.13;;;33.50;;
769;SDS011;368;48.698;9.116;2022-09-01T05:29:24;41.13;;;36.00;;
769;SDS011;368;48.698;9.116;2022-09-01T05:31:52;42.60;;;37.87;;
769;SDS011;368;48.698;9.116;2022-09-01T05:34:21;41.93;;;37.40;;
769;SDS011;368;48.698;9.116;2022-09-01T05:36:51;38.70;;;34.57;;
769;SDS011;368;48.698;9.116;2022-09-01T05:39:20;38.80;;;34.57;;
769;SDS011;368;48.698;9.116;2022-09-01T05:41:46;27.53;;;24.93;;
769;SDS011;368;48.698;9.116;2022-09-01T05:44:14;39.77;;;34.97;;
769;SDS011;368;48.698;9.116;2022-09-01T05:46:42;102.50;;;53.90;;
769;SDS011;368;48.698;9.116;2022-09-01T05:49:11;173.67;;;65.20;;
769;SDS011;368;48.698;9.116;2022-09-01T05:51:42;144.03;;;58.77;;
769;SDS011;368;48.698;9.116;2022-09-01T05:54:13;49.73;;;43.67;;
769;SDS011;368;48.698;9.116;2022-09-01T05:56:42;41.87;;;37.57;;
769;SDS011;368;48.698;9.116;2022-09-01T05:59:09;33.03;;;29.57;;
769;SDS011;368;48.698;9.116;2022-09-01T06:01:37;30.93;;;27.83;;
769;SDS011;368;48.698;9.116;2022-09-01T06:04:05;29.43;;;26.07;;
769;SDS011;368;48.698;9.116;2022-09-01T06:06:35;30.40;;;27.10;;
769;SDS011;368;48.698;9.116;2022-09-01T06:09:07;30.67;;;27.67;;
769;SDS011;368;48.698;9.116;2022-09-01T06:11:34;29.83;;;26.93;;
769;SDS011;368;48.698;9.116;2022-09-01T06:14:01;28.23;;;25.33;;
769;SDS011;368;48.698;9.116;2022-09-01T06:16:31;29.93;;;27.03;;
769;SDS011;368;48.698;9.116;2022-09-01T06:19:00;26.87;;;24.27;;
769;SDS011;368;48.698;9.116;2022-09-01T06:21:28;29.73;;;26.57;;
769;SDS011;368;48.698;9.116;2022-09-01T06:23:56;27.20;;;24.50;;
769;SDS011;368;48.698;9.116;2022-09-01T06:26:26;29.23;;;26.37;;
769;SDS011;368;48.698;9.116;2022-09-01T06:28:54;25.23;;;22.97;;
769;SDS011;368;48.698;9.116;2022-09-01T06:31:23;29.10;;;26.20;;
769;SDS011;368;48.698;9.116;2022-09-01T06:33:51;25.80;;;23.40;;
769;SDS011;368;48.698;9.116;2022-09-01T06:36:19;25.90;;;23.40;;
769;SDS011;368;48.698;9.116;2022-09-01T06:38:47;26.30;;;21.60;;
769;SDS011;368;48.698;9.116;2022-09-01T06:41:15;25.40;;;22.80;;
769;SDS011;368;48.698;9.116;2022-09-01T06:43:46;25.53;;;23.10;;
769;SDS011;368;48.698;9.116;2022-09-01T06:46:13;23.50;;;21.50;;
769;SDS011;368;48.698;9.116;2022-09-01T06:48:42;23.70;;;21.50;;
769;SDS011;368;48.698;9.116;2022-09-01T06:51:12;22.80;;;20.70;;
769;SDS011;368;48.698;9.116;2022-09-01T06:53:40;22.30;;;20.20;;
769;SDS011;368;48.698;9.116;2022-09-01T06:56:08;22.63;;;20.43;;
769;SDS011;368;48.698;9.116;2022-09-01T06:58:37;23.90;;;21.60;;
769;SDS011;368;48.698;9.116;2022-09-01T07:01:07;20.30;;;18.50;;
769;SDS011;368;48.698;9.116;2022-09-01T07:03:38;21.70;;;19.70;;
769;SDS011;368;48.698;9.116;2022-09-01T07:06:05;19.47;;;17.70;;
769;SDS011;368;48.698;9.116;2022-09-01T07:08:34;19.60;;;17.90;;
769;SDS011;368;48.698;9.116;2022-09-01T07:11:03;21.10;;;19.30;;
769;SDS011;368;48.698;9.116;2022-09-01T07:13:32;19.20;;;17.40;;
769;SDS011;368;48.698;9.116;2022-09-01T07:16:00;19.60;;;17.73;;
769;SDS011;368;48.698;9.116;2022-09-01T07:18:30;20.13;;;18.30;;
769;SDS011;368;48.698;9.116;2022-09-01T07:20:58;20.63;;;18.83;;
769;SDS011;368;48.698;9.116;2022-09-01T07:23:31;21.63;;;19.53;;
769;SDS011;368;48.698;9.116;2022-09-01T07:25:58;20.37;;;18.37;;
769;SDS011;368;48.698;9.116;2022-09-01T07:28:25;19.60;;;17.60;;
769;SDS011;368;48.698;9.116;2022-09-01T07:30:56;19.10;;;17.40;;
769;SDS011;368;48.698;9.116;2022-09-01T07:33:24;21.47;;;19.37;;
769;SDS011;368;48.698;9.116;2022-09-01T07:35:55;18.50;;;16.80;;
769;SDS011;368;48.698;9.116;2022-09-01T07:38:23;19.07;;;17.37;;
769;SDS011;368;48.698;9.116;2022-09-01T07:40:52;20.00;;;18.20;;
769;SDS011;368;48.698;9.116;2022-09-01T07:43:20;18.67;;;17.07;;
769;SDS011;368;48.698;9.116;2022-09-01T07:45:50;18.00;;;16.50;;
769;SDS011;368;48.698;9.116;2022-09-01T07:48:20;17.90;;;16.30;;
769;SDS011;368;48.698;9.116;2022-09-01T07:50:49;16.63;;;15.13;;
769;SDS011;368;48.698;9.116;2022-09-01T07:53:20;16.70;;;15.20;;
769;SDS011;368;48.698;9.116;2022-09-01T07:55:49;14.77;;;13.50;;
769;SDS011;368;48.698;9.116;2022-09-01T07:58:18;14.33;;;13.13;;
769;SDS011;368;48.698;9.116;2022-09-01T08:00:47;15.40;;;14.00;;
769;SDS011;368;48.698;9.116;2022-09-01T08:03:15;15.67;;;13.53;;
769;SDS011;368;48.698;9.116;2022-09-01T08:05:43;14.60;;;13.20;;
769;SDS011;368;48.698;9.116;2022-09-01T08:08:11;15.37;;;13.97;;
769;SDS011;368;48.698;9.116;2022-09-01T08:10:40;15.10;;;13.80;;
769;SDS011;368;48.698;9.116;2022-09-01T08:13:09;15.93;;;14.43;;
769;SDS011;368;48.698;9.116;2022-09-01T08:15:37;16.47;;;14.97;;
769;SDS011;368;48.698;9.116;2022-09-01T08:18:04;15.97;;;14.47;;
769;SDS011;368;48.698;9.116;2022-09-01T08:20:33;15.33;;;14.03;;
769;SDS011;368;48.698;9.116;2022-09-01T08:23:02;15.60;;;14.10;;
769;SDS011;368;48.698;9.116;2022-09-01T08:25:29;14.63;;;13.33;;
769;SDS011;368;48.698;9.116;2022-09-01T08:27:58;13.40;;;12.20;;
769;SDS011;368;48.698;9.116;2022-09-01T08:30:27;14.00;;;12.47;;
769;SDS011;368;48.698;9.116;2022-09-01T08:32:56;13.43;;;12.33;;
769;SDS011;368;48.698;9.116;2022-09-01T08:35:23;13.60;;;12.40;;
769;SDS011;368;48.698;9.116;2022-09-01T08:37:50;13.13;;;11.83;;
769;SDS011;368;48.698;9.116;2022-09-01T08:40:18;13.97;;;12.70;;
769;SDS011;368;48.698;9.116;2022-09-01T08:42:49;13.37;;;12.10;;
769;SDS011;368;48.698;9.116;2022-09-01T08:45:26;13.50;;;12.40;;
769;SDS011;368;48.698;9.116;2022-09-01T08:47:58;12.90;;;11.90;;
769;SDS011;368;48.698;9.116;2022-09-01T08:50:32;13.13;;;11.87;;
769;SDS011;368;48.698;9.116;2022-09-01T08:53:01;11.90;;;10.73;;
769;SDS011;368;48.698;9.116;2022-09-01T08:55:34;11.57;;;10.67;;
769;SDS011;368;48.698;9.116;2022-09-01T08:58:05;11.00;;;9.90;;
769;SDS011;368;48.698;9.116;2022-09-01T09:00:43;11.43;;;10.43;;
769;SDS011;368;48.698;9.116;2022-09-01T09:03:15;13.20;;;11.17;;
769;SDS011;368;48.698;9.116;2022-09-01T09:05:48;11.07;;;10.10;;
769;SDS011;368;48.698;9.116;2022-09-01T09:08:30;11.13;;;10.13;;
769;SDS011;368;48.698;9.116;2022-09-01T09:14:17;10.63;;;9.57;;
769;SDS011;368;48.698;9.116;2022-09-01T09:16:54;10.73;;;9.70;;
769;SDS011;368;48.698;9.116;2022-09-01T09:19:24;7.87;;;7.17;;
769;SDS011;368;48.698;9.116;2022-09-01T09:21:54;7.80;;;7.03;;
769;SDS011;368;48.698;9.116;2022-09-01T09:24:25;7.70;;;7.10;;
769;SDS011;368;48.698;9.116;2022-09-01T09:27:15;9.20;;;8.30;;
769;SDS011;368;48.698;9.116;2022-09-01T09:29:46;8.77;;;7.97;;
769;SDS011;368;48.698;9.116;2022-09-01T09:32:16;8.43;;;7.73;;
769;SDS011;368;48.698;9.116;2022-09-01T09:34:43;8.70;;;8.00;;
769;SDS011;368;48.698;9.116;2022-09-01T09:37:23;8.50;;;7.63;;
769;SDS011;368;48.698;9.116;2022-09-01T09:40:05;7.30;;;6.60;;
769;SDS011;368;48.698;9.116;2022-09-01T09:42:34;7.30;;;6.03;;
769;SDS011;368;48.698;9.116;2022-09-01T09:45:04;7.37;;;6.77;;
769;SDS011;368;48.698;9.116;2022-09-01T09:47:45;8.13;;;7.50;;
769;SDS011;368;48.698;9.116;2022-09-01T09:50:17;7.80;;;7.10;;
769;SDS011;368;48.698;9.116;2022-09-01T09:52:47;7.23;;;6.73;;
769;SDS011;368;48.698;9.116;2022-09-01T09:55:25;8.03;;;7.23;;
769;SDS011;368;48.698;9.116;2022-09-01T09:57:55;7.70;;;7.10;;
769;SDS011;368;48.698;9.116;2022-09-01T10:00:25;8.53;;;7.83;;
769;SDS011;368;48.698;9.116;2022-09-01T10:02:56;8.73;;;8.03;;
769;SDS011;368;48.698;9.116;2022-09-01T10:05:33;8.53;;;7.83;;
769;SDS011;368;48.698;9.116;2022-09-01T10:08:03;8.30;;;7.60;;
769;SDS011;368;48.698;9.116;2022-09-01T10:10:36;8.90;;;8.10;;
769;SDS011;368;48.698;9.116;2022-09-01T10:13:07;8.17;;;7.47;;
769;SDS011;368;48.698;9.116;2022-09-01T10:15:37;8.60;;;7.60;;
769;SDS011;368;48.698;9.116;2022-09-01T10:18:07;5.60;;;5.20;;
769;SDS011;368;48.698;9.116;2022-09-01T10:20:39;6.60;;;6.00;;
769;SDS011;368;48.698;9.116;2022-09-01T10:23:12;6.43;;;5.93;;
769;SDS011;368;48.698;9.116;2022-09-01T10:25:39;6.93;;;6.43;;
769;SDS011;368;48.698;9.116;2022-09-01T10:28:09;6.53;;;6.03;;
769;SDS011;368;48.698;9.116;2022-09-01T10:30:42;6.23;;;5.70;;
769;SDS011;368;48.698;9.116;2022-09-01T10:33:13;5.67;;;5.17;;
769;SDS011;368;48.698;9.116;2022-09-01T10:35:43;5.50;;;5.00;;
769;SDS011;368;48.698;9.116;2022-09-01T10:38:14;6.87;;;5.37;;
769;SDS011;368;48.698;9.116;2022-09-01T10:40:42;5.43;;;4.93;;
769;SDS011;368;48.698;9.116;2022-09-01T10:46:17;4.37;;;4.07;;
769;SDS011;368;48.698;9.116;2022-09-01T10:49:19;4.90;;;4.50;;
769;SDS011;368;48.698;9.116;2022-09-01T10:51:55;4.77;;;4.27;;
769;SDS011;368;48.698;9.116;2022-09-01T10:57:35;6.87;;;6.20;;
769;SDS011;368;48.698;9.116;2022-09-01T11:06:05;4.87;;;4.50;;
769;SDS011;368;48.698;9.116;2022-09-01T11:08:40;4.27;;;3.87;;
769;SDS011;368;48.698;9.116;2022-09-01T11:11:12;4.63;;;4.33;;
769;SDS011;368;48.698;9.116;2022-09-01T11:13:49;4.73;;;4.37;;
769;SDS011;368;48.698;9.116;2022-09-01T11:16:25;4.30;;;4.00;;
769;SDS011;368;48.698;9.116;2022-09-01T11:18:55;5.13;;;4.73;;
769;SDS011;368;48.698;9.116;2022-09-01T11:25:13;3.57;;;3.27;;
769;SDS011;368;48.698;9.116;2022-09-01T11:30:59;3.33;;;3.03;;
769;SDS011;368;48.698;9.116;2022-09-01T11:33:48;3.63;;;3.37;;
769;SDS011;368;48.698;9.116;2022-09-01T11:36:23;3.50;;;3.30;;
769;SDS011;368;48.698;9.116;2022-09-01T11:38:57;3.97;;;3.67;;
769;SDS011;368;48.698;9.116;2022-09-01T11:41:30;3.73;;;3.43;;
769;SDS011;368;48.698;9.116;2022-09-01T11:44:01;3.70;;;3.40;;
769;SDS011;368;48.698;9.116;2022-09-01T11:46:36;3.80;;;3.50;;
769;SDS011;368;48.698;9.116;2022-09-01T11:51:53;3.63;;;3.40;;
769;SDS011;368;48.698;9.116;2022-09-01T11:54:23;3.47;;;3.20;;
769;SDS011;368;48.698;9.116;2022-09-01T11:56:50;3.77;;;3.47;;
769;SDS011;368;48.698;9.116;2022-09-01T12:02:01;3.50;;;3.20;;
769;SDS011;368;48.698;9.116;2022-09-01T12:04:30;3.17;;;2.97;;
769;SDS011;368;48.698;9.116;2022-09-01T12:07:00;4.90;;;3.30;;
769;SDS011;368;48.698;9.116;2022-09-01T12:09:34;4.10;;;3.80;;
769;SDS011;368;48.698;9.116;2022-09-01T12:12:04;3.37;;;3.10;;
769;SDS011;368;48.698;9.116;2022-09-01T12:14:32;3.47;;;3.17;;
769;SDS011;368;48.698;9.116;2022-09-01T12:16:59;3.93;;;3.63;;
769;SDS011;368;48.698;9.116;2022-09-01T12:19:28;4.30;;;3.90;;
769;SDS011;368;48.698;9.116;2022-09-01T12:21:58;4.00;;;3.70;;
769;SDS011;368;48.698;9.116;2022-09-01T12:24:26;4.07;;;3.67;;
769;SDS011;368;48.698;9.116;2022-09-01T12:26:57;3.97;;;3.70;;
769;SDS011;368;48.698;9.116;2022-09-01T12:29:25;4.40;;;4.10;;
769;SDS011;368;48.698;9.116;2022-09-01T12:31:53;4.10;;;3.80;;
769;SDS011;368;48.698;9.116;2022-09-01T12:34:25;4.23;;;3.83;;
769;SDS011;368;48.698;9.116;2022-09-01T12:37:07;4.33;;;4.03;;
769;SDS011;368;48.698;9.116;2022-09-01T12:39:38;3.23;;;3.03;;
769;SDS011;368;48.698;9.116;2022-09-01T12:42:09;3.40;;;3.20;;
769;SDS011;368;48.698;9.116;2022-09-01T12:44:42;3.60;;;3.30;;
769;SDS011;368;48.698;9.116;2022-09-01T12:47:13;4.40;;;4.00;;
769;SDS011;368;48.698;9.116;2022-09-01T12:49:55;4.50;;;4.20;;
769;SDS011;368;48.698;9.116;2022-09-01T12:52:23;5.13;;;4.63;;
769;SDS011;368;48.698;9.116;2022-09-01T12:54:51;3.20;;;3.00;;
769;SDS011;368;48.698;9.116;2022-09-01T12:57:34;3.80;;;3.50;;
769;SDS011;368;48.698;9.116;2022-09-01T13:00:07;3.53;;;3.33;;
769;SDS011;368;48.698;9.116;2022-09-01T13:02:42;3.33;;;3.13;;
769;SDS011;368;48.698;9.116;2022-09-01T13:05:18;3.83;;;3.53;;
769;SDS011;368;48.698;9.116;2022-09-01T13:07:46;3.10;;;2.90;;
769;SDS011;368;48.698;9.116;2022-09-01T13:10:13;4.47;;;4.00;;
769;SDS011;368;48.698;9.116;2022-09-01T13:12:42;5.77;;;4.03;;
769;SDS011;368;48.698;9.116;2022-09-01T13:15:11;3.73;;;3.30;;
769;SDS011;368;48.698;9.116;2022-09-01T13:17:37;4.40;;;4.00;;
769;SDS011;368;48.698;9.116;2022-09-01T13:20:05;4.10;;;3.80;;
769;SDS011;368;48.698;9.116;2022-09-01T13:22:32;3.97;;;3.67;;
769;SDS011;368;48.698;9.116;2022-09-01T13:24:59;4.20;;;3.80;;
769;SDS011;368;48.698;9.116;2022-09-01T13:27:26;3.50;;;3.20;;
769;SDS011;368;48.698;9.116;2022-09-01T13:29:55;3.90;;;3.60;;
769;SDS011;368;48.698;9.116;2022-09-01T13:32:22;3.90;;;3.60;;
769;SDS011;368;48.698;9.116;2022-09-01T13:34:51;3.30;;;3.00;;
769;SDS011;368;48.698;9.116;2022-09-01T13:37:19;3.47;;;3.17;;
769;SDS011;368;48.698;9.116;2022-09-01T13:39:47;3.90;;;3.60;;
769;SDS011;368;48.698;9.116;2022-09-01T13:42:15;4.07;;;3.40;;
769;SDS011;368;48.698;9.116;2022-09-01T13:44:43;3.83;;;3.47;;
769;SDS011;368;48.698;9.116;2022-09-01T13:47:12;5.63;;;4.07;;
769;SDS011;368;48.698;9.116;2022-09-01T13:49:39;3.67;;;3.37;;
769;SDS011;368;48.698;9.116;2022-09-01T13:52:06;4.07;;;3.70;;
769;SDS011;368;48.698;9.116;2022-09-01T13:54:33;3.43;;;3.23;;
769;SDS011;368;48.698;9.116;2022-09-01T13:56:59;4.30;;;4.00;;
769;SDS011;368;48.698;9.116;2022-09-01T13:59:26;5.90;;;4.17;;
769;SDS011;368;48.698;9.116;2022-09-01T14:01:54;4.57;;;4.27;;
769;SDS011;368;48.698;9.116;2022-09-01T14:04:22;4.63;;;4.27;;
769;SDS011;368;48.698;9.116;2022-09-01T14:06:49;4.40;;;4.10;;
769;SDS011;368;48.698;9.116;2022-09-01T14:09:17;4.23;;;3.93;;
769;SDS011;368;48.698;9.116;2022-09-01T14:11:45;4.67;;;4.30;;
769;SDS011;368;48.698;9.116;2022-09-01T14:14:11;4.97;;;4.63;;
769;SDS011;368;48.698;9.116;2022-09-01T14:16:38;5.00;;;4.60;;
769;SDS011;368;48.698;9.116;2022-09-01T14:19:05;5.50;;;5.00;;
769;SDS011;368;48.698;9.116;2022-09-01T14:21:33;5.23;;;4.83;;
769;SDS011;368;48.698;9.116;2022-09-01T14:24:01;5.40;;;5.00;;
769;SDS011;368;48.698;9.116;2022-09-01T14:26:28;4.60;;;4.20;;
769;SDS011;368;48.698;9.116;2022-09-01T14:28:56;4.73;;;4.43;;
769;SDS011;368;48.698;9.116;2022-09-01T14:31:26;4.70;;;4.30;;
769;SDS011;368;48.698;9.116;2022-09-01T14:33:54;4.60;;;4.20;;
769;SDS011;368;48.698;9.116;2022-09-01T14:36:22;3.93;;;3.63;;
769;SDS011;368;48.698;9.116;2022-09-01T14:38:52;4.43;;;4.00;;
769;SDS011;368;48.698;9.116;2022-09-01T14:41:20;3.30;;;3.10;;
769;SDS011;368;48.698;9.116;2022-09-01T14:43:49;3.90;;;3.60;;
769;SDS011;368;48.698;9.116;2022-09-01T14:46:17;3.20;;;2.90;;
769;SDS011;368;48.698;9.116;2022-09-01T14:48:45;3.40;;;3.10;;
769;SDS011;368;48.698;9.116;2022-09-01T14:51:18;3.30;;;3.10;;
769;SDS011;368;48.698;9.116;2022-09-01T14:53:47;3.10;;;2.90;;
769;SDS011;368;48.698;9.116;2022-09-01T14:56:15;3.37;;;3.07;;
769;SDS011;368;48.698;9.116;2022-09-01T14:58:44;3.30;;;3.03;;
769;SDS011;368;48.698;9.116;2022-09-01T15:01:12;2.90;;;2.70;;
769;SDS011;368;48.698;9.116;2022-09-01T15:03:41;4.10;;;3.03;;
769;SDS011;368;48.698;9.116;2022-09-01T15:06:10;3.20;;;3.00;;
769;SDS011;368;48.698;9.116;2022-09-01T15:08:38;3.07;;;2.80;;
769;SDS011;368;48.698;9.116;2022-09-01T15:11:07;3.33;;;3.13;;
769;SDS011;368;48.698;9.116;2022-09-01T15:13:36;3.93;;;3.53;;
769;SDS011;368;48.698;9.116;2022-09-01T15:16:04;3.57;;;3.20;;
769;SDS011;368;48.698;9.116;2022-09-01T15:18:37;2.90;;;2.70;;
769;SDS011;368;48.698;9.116;2022-09-01T15:21:04;3.13;;;2.93;;
769;SDS011;368;48.698;9.116;2022-09-01T15:23:31;3.00;;;2.80;;
769;SDS011;368;48.698;9.116;2022-09-01T15:25:58;2.83;;;2.63;;
769;SDS011;368;48.698;9.116;2022-09-01T15:28:25;3.33;;;3.13;;
769;SDS011;368;48.698;9.116;2022-09-01T15:30:53;3.40;;;3.20;;
769;SDS011;368;48.698;9.116;2022-09-01T15:33:21;3.67;;;3.37;;
769;SDS011;368;48.698;9.116;2022-09-01T15:35:47;3.63;;;3.33;;
769;SDS011;368;48.698;9.116;2022-09-01T15:38:14;3.70;;;3.40;;
769;SDS011;368;48.698;9.116;2022-09-01T15:40:42;5.33;;;3.60;;
769;SDS011;368;48.698;9.116;2022-09-01T15:43:09;4.37;;;4.07;;
769;SDS011;368;48.698;9.116;2022-09-01T15:45:36;4.30;;;3.97;;
769;SDS011;368;48.698;9.116;2022-09-01T15:48:06;4.90;;;4.10;;
769;SDS011;368;48.698;9.116;2022-09-01T15:50:33;4.50;;;4.10;;
769;SDS011;368;48.698;9.116;2022-09-01T15:53:04;4.27;;;3.90;;
769;SDS011;368;48.698;9.116;2022-09-01T15:55:36;4.37;;;3.97;;
769;SDS011;368;48.698;9.116;2022-09-01T15:58:05;4.10;;;3.70;;
769;SDS011;368;48.698;9.116;2022-09-01T16:00:32;5.00;;;3.97;;
769;SDS011;368;48.698;9.116;2022-09-01T16:03:00;4.57;;;4.20;;
769;SDS011;368;48.698;9.116;2022-09-01T16:05:28;4.63;;;4.17;;
769;SDS011;368;48.698;9.116;2022-09-01T16:07:55;3.97;;;3.67;;
769;SDS011;368;48.698;9.116;2022-09-01T16:10:26;4.47;;;4.03;;